createdAt,value
2018-12-18T00:00:15.888Z,15.67
2018-12-18T00:02:47.260Z,15.90
2018-12-18T00:05:21.740Z,16.87
2018-12-18T00:07:51.010Z,16.13
2018-12-18T00:10:20.241Z,15.00
2018-12-18T00:12:49.436Z,17.30
2018-12-18T00:15:18.656Z,14.87
2018-12-18T00:17:47.866Z,16.33
2018-12-18T00:20:17.168Z,14.80
2018-12-18T00:22:46.286Z,13.90
2018-12-18T00:25:15.427Z,15.80
2018-12-18T00:27:44.642Z,13.60
2018-12-18T00:30:13.836Z,13.57
2018-12-18T00:32:43.073Z,14.47
2018-12-18T00:35:12.305Z,15.03
2018-12-18T00:37:41.476Z,13.70
2018-12-18T00:40:10.784Z,13.47
2018-12-18T00:42:40.041Z,13.57
2018-12-18T00:45:09.296Z,11.87
2018-12-18T00:47:38.550Z,13.07
2018-12-18T00:50:07.764Z,11.90
2018-12-18T00:52:36.915Z,10.27
2018-12-18T00:55:06.493Z,11.80
2018-12-18T00:57:35.623Z,11.73
2018-12-18T01:00:05.992Z,11.37
2018-12-18T01:02:35.164Z,10.83
2018-12-18T01:05:04.498Z,11.20
2018-12-18T01:07:33.769Z,9.70
2018-12-18T01:10:03.077Z,10.83
2018-12-18T01:12:32.385Z,9.70
2018-12-18T01:15:01.464Z,9.80
2018-12-18T01:17:30.560Z,9.53
2018-12-18T01:19:59.776Z,9.80
2018-12-18T01:22:28.972Z,9.50
2018-12-18T01:24:58.149Z,10.10
2018-12-18T01:27:27.296Z,9.30
2018-12-18T01:29:56.523Z,10.57
2018-12-18T01:32:25.648Z,10.87
2018-12-18T01:34:54.735Z,12.03
2018-12-18T01:37:23.853Z,12.10
2018-12-18T01:39:53.067Z,10.20
2018-12-18T01:42:22.284Z,11.47
2018-12-18T01:44:51.462Z,11.13
2018-12-18T01:47:20.695Z,11.50
2018-12-18T01:49:49.947Z,11.73
2018-12-18T01:52:19.084Z,12.20
2018-12-18T01:54:48.360Z,13.20
2018-12-18T01:57:17.524Z,14.47
2018-12-18T01:59:46.665Z,14.73
2018-12-18T02:02:15.863Z,13.80
2018-12-18T02:04:45.151Z,14.20
2018-12-18T02:07:14.352Z,12.97
2018-12-18T02:09:43.562Z,13.90
2018-12-18T02:12:12.773Z,13.80
2018-12-18T02:14:41.887Z,14.33
2018-12-18T02:17:11.041Z,14.13
2018-12-18T02:19:40.232Z,12.17
2018-12-18T02:22:09.511Z,12.17
2018-12-18T02:24:38.610Z,13.03
2018-12-18T02:27:07.790Z,12.30
2018-12-18T02:29:37.033Z,12.27
2018-12-18T02:32:06.208Z,12.50
2018-12-18T02:34:35.420Z,12.53
2018-12-18T02:37:04.749Z,13.17
2018-12-18T02:39:33.996Z,12.70
2018-12-18T02:42:03.116Z,12.60
2018-12-18T02:44:32.344Z,13.90
2018-12-18T02:47:01.427Z,12.27
2018-12-18T02:49:30.495Z,12.50
2018-12-18T02:51:59.766Z,12.00
2018-12-18T02:54:28.916Z,12.30
2018-12-18T02:56:58.127Z,12.27
2018-12-18T02:59:27.345Z,12.20
2018-12-18T03:01:56.484Z,12.17
2018-12-18T03:04:25.678Z,11.43
2018-12-18T03:06:54.930Z,10.90
2018-12-18T03:09:24.185Z,12.50
2018-12-18T03:11:53.305Z,12.90
2018-12-18T03:14:22.497Z,11.50
2018-12-18T03:16:51.716Z,11.07
2018-12-18T03:19:20.912Z,13.40
2018-12-18T03:21:50.131Z,11.50
2018-12-18T03:24:19.304Z,10.27
2018-12-18T03:26:48.516Z,10.57
2018-12-18T03:29:17.802Z,10.93
2018-12-18T03:31:51.368Z,10.37
2018-12-18T03:34:20.664Z,10.67
2018-12-18T03:36:49.910Z,11.20
2018-12-18T03:39:19.064Z,10.63
2018-12-18T03:41:48.280Z,10.20
2018-12-18T03:44:17.506Z,11.10
2018-12-18T03:46:46.708Z,11.70
2018-12-18T03:49:15.941Z,10.17
2018-12-18T03:51:45.065Z,11.77
2018-12-18T03:54:14.169Z,10.13
2018-12-18T03:56:43.441Z,11.00
2018-12-18T03:59:12.647Z,11.10
2018-12-18T04:01:41.849Z,11.23
2018-12-18T04:04:11.056Z,11.33
2018-12-18T04:06:40.306Z,11.70
2018-12-18T04:09:09.613Z,13.60
2018-12-18T04:11:42.785Z,11.20
2018-12-18T04:14:11.835Z,11.53
2018-12-18T04:16:41.158Z,11.90
2018-12-18T04:19:10.426Z,11.23
2018-12-18T04:21:39.649Z,12.23
2018-12-18T04:24:08.800Z,12.20
2018-12-18T04:26:37.918Z,12.07
2018-12-18T04:29:07.141Z,13.87
2018-12-18T04:31:36.344Z,13.13
2018-12-18T04:34:05.520Z,13.60
2018-12-18T04:36:34.674Z,13.87
2018-12-18T04:39:05.789Z,13.90
2018-12-18T04:41:35.057Z,13.97
2018-12-18T04:44:04.189Z,13.47
2018-12-18T04:46:33.341Z,13.00
2018-12-18T04:49:02.531Z,12.83
2018-12-18T04:51:31.834Z,14.23
2018-12-18T04:54:01.016Z,13.73
2018-12-18T04:56:30.145Z,14.47
2018-12-18T04:58:59.292Z,14.10
2018-12-18T05:01:28.520Z,14.00
2018-12-18T05:03:57.717Z,13.40
2018-12-18T05:06:26.965Z,13.97
2018-12-18T05:08:56.281Z,15.10
2018-12-18T05:11:25.644Z,14.67
2018-12-18T05:13:54.838Z,14.50
2018-12-18T05:16:24.035Z,15.20
2018-12-18T05:18:53.184Z,15.20
2018-12-18T05:21:22.354Z,15.80
2018-12-18T05:23:52.471Z,18.03
2018-12-18T05:26:21.536Z,15.90
2018-12-18T05:28:50.790Z,17.53
2018-12-18T05:31:20.037Z,15.87
2018-12-18T05:33:49.652Z,16.87
2018-12-18T05:36:18.900Z,18.87
2018-12-18T05:38:48.121Z,16.87
2018-12-18T05:41:17.334Z,16.90
2018-12-18T05:43:46.497Z,16.50
2018-12-18T05:46:15.636Z,18.20
2018-12-18T05:48:44.773Z,15.97
2018-12-18T05:51:13.981Z,18.97
2018-12-18T05:53:43.225Z,16.17
2018-12-18T05:56:12.529Z,17.47
2018-12-18T05:58:41.718Z,17.53
2018-12-18T06:01:10.851Z,16.50
2018-12-18T06:03:40.029Z,16.30
2018-12-18T06:06:09.146Z,17.30
2018-12-18T06:08:38.326Z,16.20
2018-12-18T06:11:07.536Z,16.40
2018-12-18T06:13:36.766Z,16.30
2018-12-18T06:16:05.981Z,16.90
2018-12-18T06:18:35.202Z,16.33
2018-12-18T06:21:04.409Z,16.43
2018-12-18T06:23:33.580Z,16.77
2018-12-18T06:26:02.795Z,17.60
2018-12-18T06:28:31.879Z,16.30
2018-12-18T06:31:01.090Z,15.97
2018-12-18T06:33:30.229Z,16.13
2018-12-18T06:35:59.421Z,15.63
2018-12-18T06:38:28.576Z,15.60
2018-12-18T06:40:57.824Z,15.90
2018-12-18T06:43:26.976Z,15.43
2018-12-18T06:45:56.164Z,15.50
2018-12-18T06:48:25.745Z,15.70
2018-12-18T06:50:55.085Z,14.93
2018-12-18T06:53:24.301Z,16.10
2018-12-18T06:55:53.512Z,14.73
2018-12-18T06:58:22.724Z,14.50
2018-12-18T07:00:52.010Z,16.27
2018-12-18T07:03:21.277Z,17.70
2018-12-18T07:05:50.440Z,16.33
2018-12-18T07:08:19.649Z,15.40
2018-12-18T07:10:49.082Z,15.70
2018-12-18T07:13:18.268Z,17.50
2018-12-18T07:15:47.491Z,17.37
2018-12-18T07:18:16.698Z,16.77
2018-12-18T07:20:45.839Z,17.63
2018-12-18T07:23:14.936Z,16.03
2018-12-18T07:25:44.118Z,14.70
2018-12-18T07:28:13.297Z,15.27
2018-12-18T07:30:42.545Z,15.17
2018-12-18T07:33:11.746Z,16.97
2018-12-18T07:35:40.916Z,16.00
2018-12-18T07:38:10.037Z,16.63
2018-12-18T07:40:39.146Z,15.60
2018-12-18T07:43:08.334Z,15.80
2018-12-18T07:45:37.552Z,16.57
2018-12-18T07:48:06.704Z,15.80
2018-12-18T07:50:35.904Z,17.50
2018-12-18T07:53:05.068Z,14.80
2018-12-18T07:55:34.226Z,15.00
2018-12-18T07:58:03.553Z,13.77
2018-12-18T08:00:32.719Z,13.23
2018-12-18T08:03:02.155Z,13.90
2018-12-18T08:05:31.477Z,14.27
2018-12-18T08:08:00.622Z,13.30
2018-12-18T08:10:29.852Z,13.83
2018-12-18T08:12:58.998Z,12.40
2018-12-18T08:15:28.192Z,12.90
2018-12-18T08:17:57.457Z,11.80
2018-12-18T08:20:26.633Z,12.10
2018-12-18T08:22:55.855Z,12.67
2018-12-18T08:25:25.098Z,11.50
2018-12-18T08:27:54.293Z,12.80
2018-12-18T08:30:23.457Z,11.80
2018-12-18T08:32:52.595Z,11.93
2018-12-18T08:35:21.824Z,12.10
2018-12-18T08:37:51.006Z,10.87
2018-12-18T08:40:20.271Z,12.03
2018-12-18T08:42:49.638Z,10.30
2018-12-18T08:45:18.832Z,11.10
2018-12-18T08:47:48.007Z,11.10
2018-12-18T08:50:17.237Z,11.17
2018-12-18T08:52:46.432Z,10.80
2018-12-18T08:55:15.621Z,12.43
2018-12-18T08:57:44.866Z,11.73
2018-12-18T09:00:14.105Z,11.20
2018-12-18T09:02:43.289Z,10.60
2018-12-18T09:05:12.475Z,11.57
2018-12-18T09:07:41.700Z,12.67
2018-12-18T09:10:11.310Z,10.50
2018-12-18T09:12:40.606Z,12.10
2018-12-18T09:15:15.143Z,11.30
2018-12-18T09:17:46.577Z,10.07
2018-12-18T09:20:15.921Z,9.40
2018-12-18T09:22:45.135Z,11.40
2018-12-18T09:25:14.344Z,10.77
2018-12-18T09:27:43.583Z,10.20
2018-12-18T09:30:12.776Z,11.60
2018-12-18T09:32:41.960Z,10.60
2018-12-18T09:35:11.108Z,10.10
2018-12-18T09:37:42.421Z,10.70
2018-12-18T09:40:11.599Z,9.83
2018-12-18T09:42:46.052Z,9.70
2018-12-18T09:45:15.237Z,9.60
2018-12-18T09:47:44.418Z,10.27
2018-12-18T09:50:13.625Z,10.17
2018-12-18T09:52:42.825Z,9.87
2018-12-18T09:55:12.044Z,10.63
2018-12-18T09:57:46.677Z,11.80
2018-12-18T10:00:15.903Z,8.63
2018-12-18T10:02:45.028Z,10.00
2018-12-18T10:05:14.350Z,10.37
2018-12-18T10:07:43.537Z,10.00
2018-12-18T10:10:12.784Z,10.03
2018-12-18T10:12:45.934Z,10.60
2018-12-18T10:15:15.305Z,9.37
2018-12-18T10:17:44.488Z,9.73
2018-12-18T10:20:13.675Z,9.17
2018-12-18T10:22:42.781Z,9.17
2018-12-18T10:25:11.981Z,10.70
2018-12-18T10:27:41.253Z,10.03
2018-12-18T10:30:10.943Z,9.90
2018-12-18T10:32:40.369Z,10.30
2018-12-18T10:35:09.629Z,10.03
2018-12-18T10:37:38.741Z,9.70
2018-12-18T10:40:10.522Z,8.20
2018-12-18T10:42:39.750Z,9.00
2018-12-18T10:45:15.446Z,10.87
2018-12-18T10:47:44.607Z,8.97
2018-12-18T10:50:13.728Z,8.50
2018-12-18T10:52:42.903Z,9.50
2018-12-18T10:55:12.151Z,10.80
2018-12-18T10:57:41.259Z,9.97
2018-12-18T11:00:18.752Z,12.27
2018-12-18T11:02:47.921Z,11.73
2018-12-18T11:05:17.176Z,11.43
2018-12-18T11:07:46.374Z,12.00
2018-12-18T11:10:15.547Z,9.20
2018-12-18T11:12:48.752Z,9.77
2018-12-18T11:15:17.847Z,10.07
2018-12-18T11:17:47.077Z,8.93
2018-12-18T11:20:16.260Z,10.20
2018-12-18T11:22:45.477Z,9.03
2018-12-18T11:25:14.684Z,9.30
2018-12-18T11:27:43.935Z,9.50
2018-12-18T11:30:13.042Z,11.27
2018-12-18T11:32:42.195Z,9.77
2018-12-18T11:35:11.391Z,9.67
2018-12-18T11:37:40.523Z,10.63
2018-12-18T11:40:10.645Z,10.10
2018-12-18T11:42:39.818Z,10.63
2018-12-18T11:45:09.084Z,10.57
2018-12-18T11:47:38.289Z,9.87
2018-12-18T11:50:07.726Z,9.17
2018-12-18T11:52:36.780Z,10.30
2018-12-18T11:55:06.077Z,9.70
2018-12-18T11:57:35.171Z,9.77
2018-12-18T12:00:05.798Z,9.60
2018-12-18T12:02:34.977Z,10.63
2018-12-18T12:05:04.417Z,8.83
2018-12-18T12:07:33.630Z,9.50
2018-12-18T12:10:02.816Z,10.00
2018-12-18T12:12:32.046Z,9.23
2018-12-18T12:15:01.629Z,8.83
2018-12-18T12:17:30.896Z,8.60
2018-12-18T12:20:00.139Z,8.30
2018-12-18T12:22:29.252Z,8.53
2018-12-18T12:24:58.418Z,10.03
2018-12-18T12:27:33.677Z,10.83
2018-12-18T12:30:03.234Z,10.10
2018-12-18T12:32:32.415Z,9.70
2018-12-18T12:35:01.662Z,11.20
2018-12-18T12:37:30.828Z,11.10
2018-12-18T12:40:00.180Z,11.73
2018-12-18T12:42:29.235Z,12.83
2018-12-18T12:44:58.442Z,10.63
2018-12-18T12:47:27.650Z,11.63
2018-12-18T12:49:56.808Z,10.50
2018-12-18T12:52:26.046Z,10.30
2018-12-18T12:54:55.161Z,11.53
2018-12-18T12:57:24.399Z,10.63
2018-12-18T12:59:53.552Z,9.40
2018-12-18T13:02:22.709Z,9.47
2018-12-18T13:04:51.855Z,11.13
2018-12-18T13:07:20.972Z,9.83
2018-12-18T13:09:50.173Z,10.10
2018-12-18T13:12:19.368Z,9.70
2018-12-18T13:14:48.555Z,9.83
2018-12-18T13:17:17.764Z,9.50
2018-12-18T13:19:46.985Z,8.53
2018-12-18T13:22:16.241Z,9.23
2018-12-18T13:24:45.504Z,9.77
2018-12-18T13:27:14.575Z,8.40
2018-12-18T13:29:43.777Z,9.37
2018-12-18T13:32:13.065Z,9.80
2018-12-18T13:34:42.277Z,10.00
2018-12-18T13:37:11.542Z,9.03
2018-12-18T13:39:40.745Z,10.40
2018-12-18T13:42:09.952Z,8.33
2018-12-18T13:44:39.108Z,9.20
2018-12-18T13:47:08.316Z,9.70
2018-12-18T13:49:37.418Z,9.60
2018-12-18T13:52:06.544Z,9.47
2018-12-18T13:54:35.818Z,10.00
2018-12-18T13:57:04.982Z,9.03
2018-12-18T13:59:34.128Z,9.00
2018-12-18T14:02:03.274Z,9.03
2018-12-18T14:04:32.497Z,9.73
2018-12-18T14:07:01.728Z,9.23
2018-12-18T14:09:30.907Z,10.20
2018-12-18T14:12:00.129Z,8.70
2018-12-18T14:14:29.336Z,9.00
2018-12-18T14:16:58.555Z,9.53
2018-12-18T14:19:27.708Z,10.67
2018-12-18T14:21:56.892Z,9.97
2018-12-18T14:24:26.211Z,9.73
2018-12-18T14:26:55.457Z,10.03
2018-12-18T14:29:24.545Z,9.30
2018-12-18T14:31:53.652Z,9.33
2018-12-18T14:34:22.901Z,9.80
2018-12-18T14:36:56.222Z,10.77
2018-12-18T14:39:23.308Z,9.40
2018-12-18T14:41:52.545Z,10.07
2018-12-18T14:44:21.749Z,9.10
2018-12-18T14:46:50.945Z,8.60
2018-12-18T14:49:20.193Z,9.37
2018-12-18T14:51:49.397Z,9.67
2018-12-18T14:54:18.821Z,10.70
2018-12-18T14:56:47.944Z,9.80
2018-12-18T14:59:17.453Z,10.23
2018-12-18T15:01:46.733Z,11.10
2018-12-18T15:04:16.011Z,10.93
2018-12-18T15:06:45.213Z,10.60
2018-12-18T15:09:14.410Z,11.07
2018-12-18T15:11:43.544Z,9.93
2018-12-18T15:14:12.729Z,9.83
2018-12-18T15:16:41.907Z,9.63
2018-12-18T15:19:11.155Z,9.80
2018-12-18T15:21:40.558Z,9.27
2018-12-18T15:24:09.684Z,9.40
2018-12-18T15:26:38.913Z,9.70
2018-12-18T15:29:08.061Z,10.87
2018-12-18T15:31:43.924Z,8.40
2018-12-18T15:34:13.146Z,8.30
2018-12-18T15:36:42.382Z,9.03
2018-12-18T15:39:11.561Z,8.27
2018-12-18T15:41:40.792Z,7.80
2018-12-18T15:44:09.962Z,8.40
2018-12-18T15:46:39.149Z,9.10
2018-12-18T15:49:08.347Z,8.17
2018-12-18T15:51:37.545Z,8.40
2018-12-18T15:54:06.774Z,7.77
2018-12-18T15:56:35.974Z,8.93
2018-12-18T15:59:05.221Z,8.30
2018-12-18T16:01:34.319Z,8.10
2018-12-18T16:04:03.532Z,8.60
2018-12-18T16:06:32.654Z,8.93
2018-12-18T16:09:01.749Z,9.37
2018-12-18T16:11:30.949Z,10.03
2018-12-18T16:14:00.073Z,10.33
2018-12-18T16:16:29.279Z,9.30
2018-12-18T16:18:58.556Z,8.53
2018-12-18T16:21:28.103Z,9.27
2018-12-18T16:23:57.305Z,9.27
2018-12-18T16:26:26.456Z,9.40
2018-12-18T16:28:55.627Z,9.10
2018-12-18T16:31:24.941Z,9.70
2018-12-18T16:33:54.202Z,7.97
2018-12-18T16:36:23.410Z,7.97
2018-12-18T16:38:52.559Z,8.00
2018-12-18T16:41:21.893Z,7.50
2018-12-18T16:43:51.047Z,7.00
2018-12-18T16:46:20.267Z,7.43
2018-12-18T16:48:49.381Z,8.73
2018-12-18T16:51:18.535Z,8.90
2018-12-18T16:53:47.685Z,8.70
2018-12-18T16:56:16.844Z,8.50
2018-12-18T16:58:46.077Z,9.33
2018-12-18T17:01:15.333Z,8.10
2018-12-18T17:03:44.578Z,9.30
2018-12-18T17:06:13.890Z,10.37
2018-12-18T17:08:42.975Z,11.13
2018-12-18T17:11:12.185Z,10.00
2018-12-18T17:13:41.359Z,9.00
2018-12-18T17:16:10.529Z,9.40
2018-12-18T17:18:39.944Z,10.50
2018-12-18T17:21:09.192Z,9.90
2018-12-18T17:23:38.582Z,10.97
2018-12-18T17:26:07.843Z,10.40
2018-12-18T17:28:37.048Z,10.17
2018-12-18T17:31:06.232Z,12.87
2018-12-18T17:33:35.835Z,10.90
2018-12-18T17:36:05.306Z,12.03
2018-12-18T17:38:34.416Z,13.57
2018-12-18T17:41:03.729Z,12.40
2018-12-18T17:43:33.289Z,12.67
2018-12-18T17:46:02.499Z,12.13
2018-12-18T17:48:31.620Z,11.57
2018-12-18T17:51:00.811Z,11.80
2018-12-18T17:53:30.034Z,11.20
2018-12-18T17:55:59.189Z,14.47
2018-12-18T17:58:28.366Z,12.47
2018-12-18T18:00:57.588Z,12.17
2018-12-18T18:03:26.899Z,12.77
2018-12-18T18:05:56.125Z,13.63
2018-12-18T18:08:25.362Z,13.93
2018-12-18T18:10:54.571Z,15.53
2018-12-18T18:13:23.826Z,14.63
2018-12-18T18:15:52.994Z,15.10
2018-12-18T18:18:22.219Z,14.47
2018-12-18T18:20:51.467Z,15.10
2018-12-18T18:23:20.589Z,15.90
2018-12-18T18:25:49.952Z,17.07
2018-12-18T18:28:19.108Z,16.60
2018-12-18T18:30:48.353Z,16.80
2018-12-18T18:33:17.513Z,17.30
2018-12-18T18:35:46.657Z,16.73
2018-12-18T18:38:15.823Z,18.30
2018-12-18T18:40:44.988Z,17.60
2018-12-18T18:43:14.241Z,15.97
2018-12-18T18:45:43.553Z,15.43
2018-12-18T18:48:12.765Z,16.43
2018-12-18T18:50:41.906Z,16.80
2018-12-18T18:53:11.099Z,17.13
2018-12-18T18:55:40.204Z,17.17
2018-12-18T18:58:09.401Z,17.10
2018-12-18T19:00:38.553Z,16.20
2018-12-18T19:03:07.810Z,17.33
2018-12-18T19:05:37.041Z,15.13
2018-12-18T19:08:06.299Z,15.73
2018-12-18T19:10:35.496Z,15.20
2018-12-18T19:13:04.808Z,16.77
2018-12-18T19:15:33.979Z,14.60
2018-12-18T19:18:03.204Z,15.47
2018-12-18T19:20:32.506Z,16.13
2018-12-18T19:23:01.772Z,16.27
2018-12-18T19:25:30.900Z,15.40
2018-12-18T19:28:00.126Z,15.60
2018-12-18T19:30:29.299Z,14.90
2018-12-18T19:32:58.503Z,15.83
2018-12-18T19:35:27.684Z,16.03
2018-12-18T19:38:03.015Z,16.23
2018-12-18T19:40:28.041Z,15.73
2018-12-18T19:42:57.223Z,14.93
2018-12-18T19:45:26.364Z,17.17
2018-12-18T19:47:55.634Z,16.50
2018-12-18T19:50:24.957Z,16.83
2018-12-18T19:52:54.103Z,16.10
2018-12-18T19:55:23.988Z,16.13
2018-12-18T19:57:53.189Z,14.67
2018-12-18T20:00:22.357Z,14.60
2018-12-18T20:02:51.525Z,15.13
2018-12-18T20:05:20.627Z,14.57
2018-12-18T20:07:49.909Z,14.90
2018-12-18T20:10:19.082Z,15.03
2018-12-18T20:12:48.210Z,14.80
2018-12-18T20:15:17.473Z,16.10
2018-12-18T20:17:53.192Z,14.43
2018-12-18T20:20:22.389Z,14.27
2018-12-18T20:22:51.566Z,15.57
2018-12-18T20:25:20.712Z,14.87
2018-12-18T20:27:49.945Z,15.20
2018-12-18T20:30:19.154Z,14.90
2018-12-18T20:32:48.398Z,16.50
2018-12-18T20:35:17.610Z,16.07
2018-12-18T20:37:46.843Z,16.33
2018-12-18T20:40:16.224Z,17.37
2018-12-18T20:42:45.398Z,16.57
2018-12-18T20:45:14.612Z,16.70
2018-12-18T20:47:43.757Z,15.57
2018-12-18T20:50:12.957Z,16.13
2018-12-18T20:52:42.150Z,16.23
2018-12-18T20:55:11.429Z,17.13
2018-12-18T20:57:40.693Z,15.93
2018-12-18T21:00:12.942Z,16.13
2018-12-18T21:02:42.151Z,15.60
2018-12-18T21:05:11.280Z,15.13
2018-12-18T21:07:40.497Z,15.23
2018-12-18T21:10:10.121Z,15.77
2018-12-18T21:12:39.323Z,16.73
2018-12-18T21:15:08.552Z,15.27
2018-12-18T21:17:37.815Z,15.67
2018-12-18T21:20:09.065Z,15.30
2018-12-18T21:22:38.277Z,14.23
2018-12-18T21:25:08.408Z,13.03
2018-12-18T21:27:37.617Z,14.63
2018-12-18T21:30:08.548Z,14.50
2018-12-18T21:32:37.757Z,15.60
2018-12-18T21:35:07.005Z,14.73
2018-12-18T21:37:36.144Z,14.17
2018-12-18T21:40:06.490Z,14.30
2018-12-18T21:42:35.722Z,16.03
2018-12-18T21:45:05.197Z,15.47
2018-12-18T21:47:34.263Z,16.60
2018-12-18T21:50:03.547Z,16.90
2018-12-18T21:52:32.701Z,15.83
2018-12-18T21:55:01.912Z,16.27
2018-12-18T21:57:31.071Z,15.37
2018-12-18T22:00:00.151Z,16.83
2018-12-18T22:02:29.373Z,16.57
2018-12-18T22:04:58.560Z,18.40
2018-12-18T22:07:27.789Z,19.43
2018-12-18T22:09:56.964Z,17.30
2018-12-18T22:12:26.182Z,18.37
2018-12-18T22:14:55.345Z,19.87
2018-12-18T22:17:24.467Z,19.30
2018-12-18T22:19:53.668Z,17.60
2018-12-18T22:22:22.796Z,20.40
2018-12-18T22:24:51.987Z,21.07
2018-12-18T22:27:21.222Z,21.03
2018-12-18T22:29:50.342Z,18.40
2018-12-18T22:32:19.408Z,19.90
2018-12-18T22:34:48.621Z,18.30
2018-12-18T22:37:17.825Z,17.93
2018-12-18T22:39:46.959Z,18.50
2018-12-18T22:42:16.217Z,19.47
2018-12-18T22:44:45.437Z,18.73
2018-12-18T22:47:14.612Z,20.87
2018-12-18T22:49:43.821Z,18.87
2018-12-18T22:52:12.979Z,20.40
2018-12-18T22:54:42.092Z,18.93
2018-12-18T22:57:11.230Z,17.47
2018-12-18T22:59:40.302Z,18.27
2018-12-18T23:02:14.785Z,21.10
2018-12-18T23:04:44.517Z,20.10
2018-12-18T23:07:14.039Z,18.50
2018-12-18T23:09:43.249Z,19.30
2018-12-18T23:12:12.473Z,20.03
2018-12-18T23:14:41.620Z,18.30
2018-12-18T23:17:10.775Z,17.67
2018-12-18T23:19:40.045Z,21.37
2018-12-18T23:22:09.193Z,18.00
2018-12-18T23:24:39.171Z,18.70
2018-12-18T23:27:08.317Z,18.33
2018-12-18T23:29:37.482Z,18.20
2018-12-18T23:32:06.652Z,20.00
2018-12-18T23:34:35.896Z,18.10
2018-12-18T23:37:05.117Z,17.63
2018-12-18T23:39:34.220Z,17.73
2018-12-18T23:42:03.511Z,18.07
2018-12-18T23:44:32.783Z,18.53
2018-12-18T23:47:01.988Z,18.13
2018-12-18T23:49:31.112Z,18.40
2018-12-18T23:52:00.321Z,18.00
2018-12-18T23:54:29.555Z,18.70
2018-12-18T23:56:58.799Z,18.13
2018-12-18T23:59:27.968Z,18.60
